WetterOnline ( https://www.wetteronline.at )

Wetter aktuell Stuttgart

Aktuelles Wetter: Schnarrenberg/Stuttgart (315m)

6-stündlich | Neueste Meldungen
Ortszeit Temperatur Wetter
Di, 27.09. 8:00 9.0° C bedeckt
Di, 27.09. 2:00 10.1° C Sprühregen
Mo, 26.09. 20:00 13.0° C bedeckt
Mo, 26.09. 14:00 16.4° C leicht bewölkt
Mo, 26.09. 8:00 8.9° C wolkig
Mo, 26.09. 2:00 10.8° C bewölkt
So, 25.09. 20:00 12.3° C bedeckt
So, 25.09. 14:00 14.1° C bedeckt
Ortszeit Temperatur Wetter
Di, 27.09. 13:00 10.5° C leichter Regen
Di, 27.09. 12:50 10.5° C leichter Regen
Di, 27.09. 12:40 11.2° C bedeckt
Di, 27.09. 12:30 11.4° C wolkig
Di, 27.09. 12:20 11.4° C wolkig
Di, 27.09. 12:10 10.7° C bedeckt
Di, 27.09. 12:00 10.3° C wolkig
Di, 27.09. 11:30 9.5° C Regen
Di, 27.09. 11:00 10.0° C wolkig
Di, 27.09. 10:30 9.5° C bewölkt
Di, 27.09. 10:00 8.8° C leichter Regen
Ortszeit Relative Feuchte Sichtweite
Di, 27.09. 8:00 88% 65 km
Di, 27.09. 2:00 83% 65 km
Mo, 26.09. 20:00 65% >70 km
Mo, 26.09. 14:00 50% >70 km
Mo, 26.09. 8:00 93% 25 km
Mo, 26.09. 2:00 90% 28 km
So, 25.09. 20:00 87% 35 km
So, 25.09. 14:00 82% 22 km
Ortszeit Relative Feuchte Sichtweite
Di, 27.09. 13:00 70% 16 km
Di, 27.09. 12:50 70% -
Di, 27.09. 12:40 67% -
Di, 27.09. 12:30 67% >70 km
Di, 27.09. 12:20 67% -
Di, 27.09. 12:10 68% -
Di, 27.09. 12:00 75% 65 km
Di, 27.09. 11:30 79% 4.7 km
Di, 27.09. 11:00 73% >70 km
Di, 27.09. 10:30 80% >70 km
Di, 27.09. 10:00 84% 65 km
Ortszeit Niederschlagsmenge Niederschlagsart
Di, 27.09. 8:00 4 l/m2 in 12 Std. Regen
Di, 27.09. 2:00 2 l/m2 in 6 Std. Regen
Mo, 26.09. 20:00 1 l/m2 in 12 Std. Regen
Mo, 26.09. 14:00 0.1 l/m2 in 6 Std. Regen
Mo, 26.09. 8:00 0.1 l/m2 in 12 Std. -
Mo, 26.09. 2:00 0.1 l/m2 in 6 Std. Regen
So, 25.09. 20:00 0.1 l/m2 in 12 Std. -
So, 25.09. 14:00 0.1 l/m2 in 6 Std. Regen
Ortszeit Niederschlagsmenge Niederschlagsart
Di, 27.09. 13:00 <0.05 l/m2 in 1 Std. Regen
Di, 27.09. 12:50 keine Meldung -
Di, 27.09. 12:40 keine Meldung -
Di, 27.09. 12:30 0.0 l/m2 in 1 Std. -
Di, 27.09. 12:20 keine Meldung -
Di, 27.09. 12:10 keine Meldung -
Di, 27.09. 12:00 0.4 l/m2 in 1 Std. Regen
Di, 27.09. 11:30 0.1 l/m2 in 1 Std. -
Di, 27.09. 11:00 <0.05 l/m2 in 1 Std. Regen
Di, 27.09. 10:30 <0.05 l/m2 in 1 Std. Schneeregen
Di, 27.09. 10:00 0.6 l/m2 in 1 Std. Regen
Ortszeit Stärke Spitze Richtung
km/h Bft. km/h Grad Sektor
Di, 27.09. 8:00 13 3 37 260° W
Di, 27.09. 2:00 15 3 41 200° S
Mo, 26.09. 20:00 11 2 40 190° S
Mo, 26.09. 14:00 11 2 32 240° SW
Mo, 26.09. 8:00 11 2 15 160° S
Mo, 26.09. 2:00 7 2 25 250° W
So, 25.09. 20:00 13 3 28 300° NW
So, 25.09. 14:00 6 1 20 280° W
Ortszeit Stärke Spitze Richtung
km/h Bft. km/h Grad Sektor
Di, 27.09. 13:00 14 3 36 250° W
Di, 27.09. 12:50 14 3 - 250° W
Di, 27.09. 12:40 14 3 - 260° W
Di, 27.09. 12:30 18 3 36 280° W
Di, 27.09. 12:20 18 3 - 280° W
Di, 27.09. 12:10 20 4 - 270° W
Di, 27.09. 12:00 18 3 43 270° W
Di, 27.09. 11:30 14 3 43 270° W
Di, 27.09. 11:00 30 5 48 270° W
Di, 27.09. 10:30 22 4 43 270° W
Di, 27.09. 10:00 17 3 46 260° W
Ortszeit Untergrenze Bedeckung Gattung
total tief tief mittel hoch
Di, 27.09. 8:00 570 m 8/8 8/8 - - -
Di, 27.09. 2:00 1350 m 7/8 7/8 - - -
Mo, 26.09. 20:00 1800 m 8/8 8/8 - - -
Mo, 26.09. 14:00 1500 m 4/8 4/8 - - -
Mo, 26.09. 8:00 2700 m 5/8 5/8 - - -
Mo, 26.09. 2:00 1500 m 7/8 7/8 - - -
So, 25.09. 20:00 270 m 8/8 8/8 - - -
So, 25.09. 14:00 420 m 8/8 8/8 - - -
Ortszeit Bedeckungsgrad in Achtel und Wolkenuntergrenze
Di, 27.09. 13:00 5(900m) 8(1410m) 8(3300m)
Di, 27.09. 12:50 5(900m) 8(1410m) 8(3300m)
Di, 27.09. 12:40 8
Di, 27.09. 12:30 2(900m) 8(3600m) 8(4200m)
Di, 27.09. 12:20 2(900m) 8(3600m) 8(4200m)
Di, 27.09. 12:10 8
Di, 27.09. 12:00 1(600m) 8(3600m)
Di, 27.09. 11:30 5(690m) 7(1500m) 8(3300m)
Di, 27.09. 11:00 3(660m) 7(3000m) 7(3600m)
Di, 27.09. 10:30 1(570m) 5(1500m) 7(2700m)
Di, 27.09. 10:00 6(540m) 7(900m) 7(1140m)
Ortszeit Luftdruck NN (hPa) Tendenz (hPa in 3 Std.)
Di, 27.09. 8:00 1001 + 1,7
Di, 27.09. 2:00 1000 - 2,5
Mo, 26.09. 20:00 1003 - 1,7
Mo, 26.09. 14:00 1007 - 1,9
Mo, 26.09. 8:00 1010 - 1,6
Mo, 26.09. 2:00 1013 - 0,8
So, 25.09. 20:00 1012 + 0,6
So, 25.09. 14:00 1012 - 0,2
Ortszeit Luftdruck NN (hPa) Tendenz (hPa in 3 Std.)
Di, 27.09. 13:00 1003 + 0,5
Di, 27.09. 12:50 1003 keine Meldung
Di, 27.09. 12:40 1003 keine Meldung
Di, 27.09. 12:30 1003 + 0,8
Di, 27.09. 12:20 1003 keine Meldung
Di, 27.09. 12:10 1003 keine Meldung
Di, 27.09. 12:00 1003 + 1,4
Di, 27.09. 11:30 1003 + 1,6
Di, 27.09. 11:00 1003 + 1,8
Di, 27.09. 10:30 1003 + 2,0
Di, 27.09. 10:00 1003 + 2,2
Ortszeit Schneehöhe (cm)
Di, 27.09. 8:00 0
Di, 27.09. 2:00 0
Mo, 26.09. 20:00 0
Mo, 26.09. 14:00 0
Mo, 26.09. 8:00 0
Mo, 26.09. 2:00 0
So, 25.09. 20:00 0
So, 25.09. 14:00 0
Ortszeit Schneehöhe (cm)
Di, 27.09. 13:00 0
Di, 27.09. 12:50 0
Di, 27.09. 12:40 0
Di, 27.09. 12:30 0
Di, 27.09. 12:20 0
Di, 27.09. 12:10 0
Di, 27.09. 12:00 0
Di, 27.09. 11:30 0
Di, 27.09. 11:00 0
Di, 27.09. 10:30 0
Di, 27.09. 10:00 0
Link zu dieser Seite / Seite empfehlen

Das Wetter in ...